Time;durP1;ratioP1;P1;durP2;ratioP2;P2;SDS_P1;SDS_P2;PMS_P1;PMS_P2;Temp;Humidity;BMP_temperature;BMP_pressure;BME280_temperature;BME280_humidity;BME280_pressure;Samples;Min_cycle;Max_cycle;Signal;HPM_P1;HPM_P2
2022/05/31 00:00:36;;;;;;;6.80;6.30;;;;;;;;;;5006951;28;20125;-63
2022/05/31 00:03:04;;;;;;;6.28;5.70;;;;;;;;;;5004994;28;20118;-63
2022/05/31 00:05:30;;;;;;;6.28;5.88;;;;;;;;;;5005749;28;20034;-63
2022/05/31 00:07:56;;;;;;;6.72;5.80;;;;;;;;;;4997070;28;20064;-63
2022/05/31 00:10:22;;;;;;;6.00;5.60;;;;;;;;;;5008999;28;20121;-63
2022/05/31 00:12:49;;;;;;;6.10;5.60;;;;;;;;;;5004277;28;20034;-63
2022/05/31 00:15:17;;;;;;;7.28;5.80;;;;;;;;;;5008353;28;20643;-63
2022/05/31 00:17:43;;;;;;;6.15;5.70;;;;;;;;;;5010106;28;20037;-63
2022/05/31 00:20:11;;;;;;;6.10;5.70;;;;;;;;;;5005062;28;20039;-63
2022/05/31 00:22:37;;;;;;;5.78;5.28;;;;;;;;;;5008645;28;20077;-62
2022/05/31 00:25:05;;;;;;;6.40;5.90;;;;;;;;;;5002704;28;20088;-63
2022/05/31 00:27:30;;;;;;;5.95;5.55;;;;;;;;;;5002585;28;20530;-63
2022/05/31 00:29:56;;;;;;;6.20;5.60;;;;;;;;;;5000167;28;20755;-63
2022/05/31 00:32:28;;;;;;;6.18;5.68;;;;;;;;;;5005050;28;20705;-63
2022/05/31 00:34:56;;;;;;;6.50;5.50;;;;;;;;;;4989407;28;20079;-63
2022/05/31 00:37:22;;;;;;;6.00;5.50;;;;;;;;;;5019321;28;20077;-63
2022/05/31 00:39:48;;;;;;;6.07;5.60;;;;;;;;;;5005654;28;20037;-62
2022/05/31 00:42:17;;;;;;;6.30;5.80;;;;;;;;;;5001723;28;20559;-63
2022/05/31 00:44:43;;;;;;;6.50;5.90;;;;;;;;;;5009623;28;20030;-62
2022/05/31 00:47:16;;;;;;;6.53;5.82;;;;;;;;;;5002960;28;20033;-63
2022/05/31 00:50:26;;;;;;;6.35;5.68;;;;;;;;;;5005016;28;20049;-63
2022/05/31 00:52:57;;;;;;;6.22;5.63;;;;;;;;;;4993725;28;20050;-63
2022/05/31 00:55:31;;;;;;;6.10;5.60;;;;;;;;;;5001966;28;20524;-63
2022/05/31 00:58:12;;;;;;;6.30;5.80;;;;;;;;;;4995183;28;20077;-63
2022/05/31 01:00:40;;;;;;;6.57;5.90;;;;;;;;;;5009309;28;20033;-62
2022/05/31 01:03:08;;;;;;;6.50;6.00;;;;;;;;;;5005836;28;20046;-62
2022/05/31 01:05:34;;;;;;;6.40;5.90;;;;;;;;;;5001932;28;20071;-62
2022/05/31 01:08:02;;;;;;;6.45;5.95;;;;;;;;;;5010058;28;20593;-62
2022/05/31 01:10:43;;;;;;;6.65;6.10;;;;;;;;;;5024663;28;20037;-63
2022/05/31 01:13:41;;;;;;;6.65;5.97;;;;;;;;;;5003371;28;20144;-63
2022/05/31 01:16:26;;;;;;;6.57;5.97;;;;;;;;;;4997631;28;20539;-63
2022/05/31 01:19:55;;;;;;;6.90;6.30;;;;;;;;;;4995620;28;20067;-63
2022/05/31 01:21:57;;;;;;;7.43;5.88;;;;;;;;;;4996196;28;20034;-62
2022/05/31 01:24:44;;;;;;;6.47;6.00;;;;;;;;;;5003318;28;20052;-62
2022/05/31 01:27:22;;;;;;;6.03;5.63;;;;;;;;;;5006097;28;20034;-63
2022/05/31 01:29:48;;;;;;;6.40;5.80;;;;;;;;;;5014454;22;20390;-67
2022/05/31 01:32:14;;;;;;;7.00;6.40;;;;;;;;;;5021410;28;20041;-67
2022/05/31 01:34:42;;;;;;;7.43;6.15;;;;;;;;;;5026443;28;20029;-67
2022/05/31 01:37:09;;;;;;;6.80;6.20;;;;;;;;;;5025006;28;20092;-67
2022/05/31 01:39:59;;;;;;;6.78;6.18;;;;;;;;;;5023796;28;20045;-67
2022/05/31 01:42:40;;;;;;;6.70;6.20;;;;;;;;;;5025058;28;20638;-68
2022/05/31 01:45:29;;;;;;;6.90;6.30;;;;;;;;;;5036940;28;20424;-68
2022/05/31 01:48:02;;;;;;;6.93;6.32;;;;;;;;;;5036032;28;20081;-67
2022/05/31 01:50:28;;;;;;;6.90;6.30;;;;;;;;;;5026801;28;20087;-68
2022/05/31 01:52:54;;;;;;;7.00;6.40;;;;;;;;;;5028104;28;20555;-69
2022/05/31 01:55:21;;;;;;;6.68;6.07;;;;;;;;;;5013368;28;20544;-68
2022/05/31 01:57:53;;;;;;;6.95;6.30;;;;;;;;;;5025563;28;20034;-68
2022/05/31 02:00:20;;;;;;;9.57;6.40;;;;;;;;;;5026577;28;20044;-68
2022/05/31 02:02:51;;;;;;;6.95;6.35;;;;;;;;;;5026863;28;20040;-67
2022/05/31 02:05:18;;;;;;;6.72;6.13;;;;;;;;;;5020584;28;20034;-67
2022/05/31 02:07:56;;;;;;;6.43;5.97;;;;;;;;;;5023537;28;20522;-67
2022/05/31 02:10:23;;;;;;;6.53;5.95;;;;;;;;;;5033803;28;20527;-69
2022/05/31 02:12:50;;;;;;;10.60;6.70;;;;;;;;;;5023320;28;20030;-67
2022/05/31 02:15:36;;;;;;;7.47;6.43;;;;;;;;;;5025507;28;20041;-69
2022/05/31 02:18:24;;;;;;;7.22;6.53;;;;;;;;;;5027072;28;20045;-67
2022/05/31 02:21:21;;;;;;;7.07;6.07;;;;;;;;;;5025703;28;20548;-67
2022/05/31 02:23:48;;;;;;;6.80;6.10;;;;;;;;;;5017665;28;20064;-69
2022/05/31 02:26:14;;;;;;;6.72;6.22;;;;;;;;;;5018498;28;20057;-69
2022/05/31 02:28:40;;;;;;;10.43;6.53;;;;;;;;;;5023048;28;20039;-67
2022/05/31 02:31:05;;;;;;;7.90;7.15;;;;;;;;;;5008270;28;20133;-67
2022/05/31 02:33:31;;;;;;;6.93;6.13;;;;;;;;;;5012691;28;20120;-68
2022/05/31 02:35:56;;;;;;;7.50;6.47;;;;;;;;;;5018706;28;20037;-69
2022/05/31 02:38:22;;;;;;;6.90;6.40;;;;;;;;;;5025552;28;20057;-67
2022/05/31 02:40:48;;;;;;;7.15;6.45;;;;;;;;;;5023097;28;20037;-67
2022/05/31 02:43:14;;;;;;;7.75;6.32;;;;;;;;;;5025250;28;20057;-68
2022/05/31 02:45:40;;;;;;;7.10;6.40;;;;;;;;;;5029786;28;20037;-68
2022/05/31 02:48:06;;;;;;;7.38;6.55;;;;;;;;;;5030471;28;20116;-68
2022/05/31 02:50:32;;;;;;;7.13;6.53;;;;;;;;;;5024945;28;20041;-70
2022/05/31 02:52:57;;;;;;;6.97;6.38;;;;;;;;;;5015933;28;20037;-69
2022/05/31 02:55:23;;;;;;;8.10;6.70;;;;;;;;;;5016993;28;20038;-67
2022/05/31 02:58:07;;;;;;;7.90;6.60;;;;;;;;;;5028199;28;20719;-67
2022/05/31 03:00:52;;;;;;;7.70;7.03;;;;;;;;;;5023771;28;20074;-70
2022/05/31 03:03:40;;;;;;;7.57;6.78;;;;;;;;;;5028221;28;20033;-68
2022/05/31 03:06:26;;;;;;;8.00;7.25;;;;;;;;;;5027915;28;20029;-67
2022/05/31 03:09:01;;;;;;;7.45;6.65;;;;;;;;;;5026035;28;20029;-70
2022/05/31 03:11:51;;;;;;;7.55;6.60;;;;;;;;;;5028236;28;20067;-68
2022/05/31 03:14:39;;;;;;;7.93;6.63;;;;;;;;;;5029174;28;20044;-67
2022/05/31 03:17:26;;;;;;;7.13;6.55;;;;;;;;;;5042027;28;20057;-67
2022/05/31 03:20:00;;;;;;;10.85;6.85;;;;;;;;;;5013599;28;20532;-67
2022/05/31 03:22:32;;;;;;;8.73;7.03;;;;;;;;;;5024920;28;20033;-66
2022/05/31 03:25:09;;;;;;;7.40;6.70;;;;;;;;;;5018883;28;20061;-68
2022/05/31 03:27:35;;;;;;;7.38;6.70;;;;;;;;;;5025329;28;20116;-67
2022/05/31 03:30:02;;;;;;;7.05;6.47;;;;;;;;;;5026005;28;20044;-70
2022/05/31 03:32:30;;;;;;;7.68;6.82;;;;;;;;;;5026874;28;20033;-67
2022/05/31 03:34:56;;;;;;;7.75;7.05;;;;;;;;;;5028872;28;20515;-67
2022/05/31 03:37:22;;;;;;;7.70;7.00;;;;;;;;;;5030290;28;20041;-67
2022/05/31 03:39:47;;;;;;;8.32;7.25;;;;;;;;;;5020274;28;20032;-66
2022/05/31 03:42:13;;;;;;;7.63;6.68;;;;;;;;;;5025304;28;20033;-68
2022/05/31 03:44:40;;;;;;;7.68;6.97;;;;;;;;;;5027521;28;20021;-68
2022/05/31 03:47:24;;;;;;;7.78;6.63;;;;;;;;;;5028036;28;20040;-68
2022/05/31 03:50:08;;;;;;;7.18;6.68;;;;;;;;;;5027505;28;20107;-67
2022/05/31 03:52:34;;;;;;;8.45;7.20;;;;;;;;;;5027174;28;20516;-69
2022/05/31 03:55:01;;;;;;;7.70;6.90;;;;;;;;;;5020634;28;20765;-67
2022/05/31 03:57:47;;;;;;;7.75;6.95;;;;;;;;;;5007603;28;20497;-68
2022/05/31 04:00:29;;;;;;;8.90;7.00;;;;;;;;;;5020574;28;20037;-68
2022/05/31 04:03:11;;;;;;;8.38;6.82;;;;;;;;;;5023350;28;20037;-66
2022/05/31 04:05:38;;;;;;;8.55;6.70;;;;;;;;;;5028688;28;20137;-69
2022/05/31 04:08:08;;;;;;;7.40;6.70;;;;;;;;;;5026103;28;20502;-68
2022/05/31 04:10:35;;;;;;;7.43;6.70;;;;;;;;;;5026070;28;20042;-66
2022/05/31 04:13:02;;;;;;;8.00;6.82;;;;;;;;;;5025868;28;20065;-67
2022/05/31 04:15:46;;;;;;;12.48;7.15;;;;;;;;;;5026750;28;20143;-69
2022/05/31 04:18:12;;;;;;;7.47;6.78;;;;;;;;;;5026489;28;20046;-67
2022/05/31 04:20:38;;;;;;;7.22;6.55;;;;;;;;;;5027873;28;20119;-66
2022/05/31 04:26:09;;;;;;;7.38;6.10;;;;;;;;;;5018038;28;20068;-70
2022/05/31 04:28:55;;;;;;;7.57;6.85;;;;;;;;;;5027833;28;20049;-68
2022/05/31 04:31:43;;;;;;;7.20;6.50;;;;;;;;;;5027001;28;20496;-68
2022/05/31 04:34:29;;;;;;;7.07;6.47;;;;;;;;;;5007342;28;20128;-69
2022/05/31 04:36:56;;;;;;;7.22;6.63;;;;;;;;;;5022551;28;20144;-70
2022/05/31 04:39:40;;;;;;;6.72;6.22;;;;;;;;;;5027435;28;20033;-67
2022/05/31 04:42:14;;;;;;;8.00;6.65;;;;;;;;;;5024980;28;20041;-69
2022/05/31 04:44:39;;;;;;;7.57;6.95;;;;;;;;;;5013492;28;20040;-69
2022/05/31 04:47:06;;;;;;;7.10;6.50;;;;;;;;;;5022062;28;20503;-67
2022/05/31 04:49:44;;;;;;;8.60;6.88;;;;;;;;;;5027355;28;20476;-67
2022/05/31 04:52:11;;;;;;;7.07;6.38;;;;;;;;;;5027500;28;20048;-67
2022/05/31 04:54:44;;;;;;;7.40;6.80;;;;;;;;;;5020449;28;20530;-68
2022/05/31 04:57:16;;;;;;;7.70;7.03;;;;;;;;;;5023556;28;20541;-67
2022/05/31 04:59:42;;;;;;;7.60;7.00;;;;;;;;;;5027619;28;20041;-70
2022/05/31 05:02:10;;;;;;;9.23;7.68;;;;;;;;;;5025545;28;20037;-67
2022/05/31 05:04:52;;;;;;;7.60;7.00;;;;;;;;;;5020924;28;20040;-69
2022/05/31 05:07:38;;;;;;;7.45;6.85;;;;;;;;;;5026894;28;20049;-69
2022/05/31 05:10:06;;;;;;;8.73;7.15;;;;;;;;;;5025148;28;20041;-70
2022/05/31 05:12:49;;;;;;;8.07;6.63;;;;;;;;;;5022741;28;20041;-67
2022/05/31 05:15:39;;;;;;;8.30;7.60;;;;;;;;;;5025178;28;20120;-67
2022/05/31 05:18:05;;;;;;;7.45;6.82;;;;;;;;;;5026933;28;20068;-69
2022/05/31 05:20:34;;;;;;;7.50;6.90;;;;;;;;;;5020990;28;20100;-68
2022/05/31 05:23:00;;;;;;;7.43;6.90;;;;;;;;;;5019408;28;20034;-66
2022/05/31 05:25:26;;;;;;;7.82;7.13;;;;;;;;;;5020275;28;20080;-67
2022/05/31 05:28:00;;;;;;;7.53;6.82;;;;;;;;;;5023162;28;20038;-67
2022/05/31 05:30:38;;;;;;;11.82;6.95;;;;;;;;;;5025535;28;20095;-67
2022/05/31 05:33:28;;;;;;;7.10;6.60;;;;;;;;;;5012633;28;20140;-69
2022/05/31 05:36:20;;;;;;;7.93;7.10;;;;;;;;;;5024049;28;20159;-69
2022/05/31 05:38:48;;;;;;;9.57;7.15;;;;;;;;;;5025842;28;20492;-68
2022/05/31 05:41:37;;;;;;;8.43;7.65;;;;;;;;;;5010866;28;20037;-67
2022/05/31 05:44:21;;;;;;;9.23;7.63;;;;;;;;;;5022209;28;20124;-67
2022/05/31 05:46:47;;;;;;;8.05;6.93;;;;;;;;;;5025026;28;20224;-67
2022/05/31 05:49:12;;;;;;;9.40;7.03;;;;;;;;;;5022627;28;20408;-67
2022/05/31 05:51:39;;;;;;;7.78;7.03;;;;;;;;;;5020734;28;20374;-67
2022/05/31 05:54:27;;;;;;;8.90;7.22;;;;;;;;;;5015031;28;20041;-67
2022/05/31 05:57:11;;;;;;;9.35;6.82;;;;;;;;;;5019314;28;20137;-67
2022/05/31 05:59:57;;;;;;;9.55;7.82;;;;;;;;;;5023596;28;20041;-66
2022/05/31 06:02:46;;;;;;;7.68;6.97;;;;;;;;;;5026338;28;20112;-68
2022/05/31 06:05:28;;;;;;;7.95;7.20;;;;;;;;;;5021394;28;20037;-67
2022/05/31 06:07:57;;;;;;;8.23;7.53;;;;;;;;;;5027444;28;20032;-70
2022/05/31 06:10:49;;;;;;;8.10;7.32;;;;;;;;;;5024132;28;20033;-69
2022/05/31 06:13:33;;;;;;;8.05;7.32;;;;;;;;;;5024682;28;20029;-70
2022/05/31 06:15:58;;;;;;;12.40;8.20;;;;;;;;;;5025172;28;20046;-71
2022/05/31 06:18:37;;;;;;;9.27;7.18;;;;;;;;;;5018991;28;20040;-68
2022/05/31 06:21:06;;;;;;;7.30;6.63;;;;;;;;;;5018030;28;20520;-69
2022/05/31 06:23:36;;;;;;;8.63;7.40;;;;;;;;;;5029454;28;20116;-70
2022/05/31 06:26:02;;;;;;;13.47;7.77;;;;;;;;;;4997813;28;20134;-69
2022/05/31 06:28:38;;;;;;;7.88;7.10;;;;;;;;;;5023132;28;20297;-68
2022/05/31 06:31:04;;;;;;;7.78;6.85;;;;;;;;;;5025699;28;20049;-68
2022/05/31 06:33:30;;;;;;;10.27;6.60;;;;;;;;;;5026504;28;20033;-70
2022/05/31 06:35:55;;;;;;;10.02;6.88;;;;;;;;;;5025190;28;20037;-68
2022/05/31 06:38:23;;;;;;;7.43;6.85;;;;;;;;;;5023480;28;20108;-70
2022/05/31 06:40:52;;;;;;;7.68;7.00;;;;;;;;;;5021154;28;20122;-69
2022/05/31 06:43:30;;;;;;;6.82;6.22;;;;;;;;;;5027172;28;20504;-68
2022/05/31 06:46:15;;;;;;;8.77;6.88;;;;;;;;;;5027611;28;20406;-68
2022/05/31 06:49:01;;;;;;;6.75;6.25;;;;;;;;;;5020276;28;20071;-68
2022/05/31 06:57:39;;;;;;;7.80;7.10;;;;;;;;;;5020444;28;20047;-68
2022/05/31 07:00:20;;;;;;;7.55;6.90;;;;;;;;;;5026267;28;20519;-70
2022/05/31 07:02:48;;;;;;;8.30;7.57;;;;;;;;;;5008808;28;20037;-70
2022/05/31 07:05:15;;;;;;;8.07;6.88;;;;;;;;;;5023493;28;20060;-69
2022/05/31 07:07:41;;;;;;;7.65;7.15;;;;;;;;;;5025296;28;20092;-70
2022/05/31 07:10:25;;;;;;;7.75;7.15;;;;;;;;;;5022422;28;20041;-68
2022/05/31 07:13:09;;;;;;;7.15;6.45;;;;;;;;;;5021017;28;20036;-68
2022/05/31 07:16:01;;;;;;;7.20;6.63;;;;;;;;;;5025955;28;20504;-68
2022/05/31 07:18:42;;;;;;;7.05;6.55;;;;;;;;;;5022982;28;20456;-68
2022/05/31 07:21:08;;;;;;;7.22;6.57;;;;;;;;;;5023894;28;20076;-67
2022/05/31 07:23:34;;;;;;;6.70;6.20;;;;;;;;;;5025473;28;20453;-68
2022/05/31 07:26:04;;;;;;;7.68;6.55;;;;;;;;;;5019379;28;20041;-68
2022/05/31 07:28:30;;;;;;;6.70;6.20;;;;;;;;;;5024663;28;20047;-70
2022/05/31 07:31:00;;;;;;;6.88;6.38;;;;;;;;;;5022671;28;20037;-69
2022/05/31 07:33:26;;;;;;;7.10;6.40;;;;;;;;;;5028215;28;20033;-69
2022/05/31 07:35:54;;;;;;;7.57;6.95;;;;;;;;;;5029214;28;20110;-69
2022/05/31 07:38:22;;;;;;;7.50;6.80;;;;;;;;;;5011203;28;20718;-69
2022/05/31 07:40:49;;;;;;;7.28;6.57;;;;;;;;;;5022917;28;20036;-68
2022/05/31 07:43:15;;;;;;;6.55;5.93;;;;;;;;;;5033052;28;20034;-67
2022/05/31 07:45:41;;;;;;;9.93;6.57;;;;;;;;;;5028886;28;20150;-67
2022/05/31 07:48:10;;;;;;;6.73;6.13;;;;;;;;;;5026378;28;20091;-66
2022/05/31 07:50:36;;;;;;;7.35;6.75;;;;;;;;;;5027856;28;20035;-66
2022/05/31 07:53:20;;;;;;;7.55;6.82;;;;;;;;;;5030973;28;20071;-67
2022/05/31 07:56:15;;;;;;;6.20;5.70;;;;;;;;;;4996778;28;20058;-68
2022/05/31 07:59:04;;;;;;;9.75;6.13;;;;;;;;;;5026602;28;20476;-67
2022/05/31 08:01:39;;;;;;;7.00;6.40;;;;;;;;;;5029862;28;20048;-67
2022/05/31 08:04:25;;;;;;;6.90;6.30;;;;;;;;;;5020788;28;20505;-66
2022/05/31 08:06:51;;;;;;;8.80;6.35;;;;;;;;;;5028992;28;20269;-66
2022/05/31 08:09:18;;;;;;;6.75;6.15;;;;;;;;;;5028117;28;20044;-66
2022/05/31 08:11:43;;;;;;;6.60;6.10;;;;;;;;;;5028722;28;20041;-65
2022/05/31 08:14:09;;;;;;;6.78;6.18;;;;;;;;;;5025591;28;20113;-67
2022/05/31 08:16:35;;;;;;;7.13;6.70;;;;;;;;;;5028052;28;20061;-68
2022/05/31 08:19:03;;;;;;;7.40;6.90;;;;;;;;;;5029311;28;20507;-66
2022/05/31 08:21:30;;;;;;;6.80;6.40;;;;;;;;;;5029452;28;20040;-66
2022/05/31 08:23:59;;;;;;;7.30;6.80;;;;;;;;;;5021206;28;20388;-65
2022/05/31 08:26:25;;;;;;;;;;;;;;;;;;5024192;28;20037;-66
2022/05/31 08:28:51;;;;;;;7.97;7.30;;;;;;;;;;5029518;28;19967;-65
2022/05/31 08:31:22;;;;;;;7.65;6.95;;;;;;;;;;5028028;28;20452;-66
2022/05/31 08:33:48;;;;;;;6.72;6.22;;;;;;;;;;5026527;28;20040;-65
2022/05/31 08:36:13;;;;;;;7.43;6.93;;;;;;;;;;5029800;28;20116;-66
2022/05/31 08:38:40;;;;;;;7.78;7.10;;;;;;;;;;5030255;28;20037;-66
2022/05/31 08:41:21;;;;;;;7.65;6.95;;;;;;;;;;5025541;28;20064;-66
2022/05/31 08:43:47;;;;;;;7.40;6.80;;;;;;;;;;5024271;28;20357;-66
2022/05/31 08:46:35;;;;;;;7.70;7.10;;;;;;;;;;5027351;28;20038;-66
2022/05/31 08:49:16;;;;;;;7.15;6.50;;;;;;;;;;5024618;28;20067;-66
2022/05/31 08:52:04;;;;;;;7.65;7.10;;;;;;;;;;5022664;28;20396;-66
2022/05/31 08:57:45;;;;;;;7.20;6.63;;;;;;;;;;5020620;28;20045;-66
2022/05/31 09:00:17;;;;;;;7.13;6.63;;;;;;;;;;5025286;28;20033;-66
2022/05/31 09:03:13;;;;;;;7.57;6.88;;;;;;;;;;5028464;28;20127;-66
2022/05/31 09:06:00;;;;;;;7.28;6.78;;;;;;;;;;5022813;28;20037;-65
2022/05/31 09:08:28;;;;;;;6.53;5.95;;;;;;;;;;5027219;28;20124;-66
2022/05/31 09:11:16;;;;;;;9.20;6.22;;;;;;;;;;5028351;28;20146;-66
2022/05/31 09:13:54;;;;;;;6.22;5.80;;;;;;;;;;5023619;28;20120;-65
2022/05/31 09:16:50;;;;;;;6.93;6.35;;;;;;;;;;5024677;28;20041;-66
2022/05/31 09:19:50;;;;;;;6.35;5.95;;;;;;;;;;5024646;28;20037;-66
2022/05/31 09:22:16;;;;;;;6.47;5.97;;;;;;;;;;5026349;28;20034;-67
2022/05/31 09:24:44;;;;;;;6.80;6.28;;;;;;;;;;5020758;28;20160;-67
2022/05/31 09:27:18;;;;;;;7.40;6.80;;;;;;;;;;5022578;28;20440;-66
2022/05/31 09:30:04;;;;;;;6.88;6.28;;;;;;;;;;5027807;28;20040;-67
2022/05/31 09:33:06;;;;;;;7.10;6.60;;;;;;;;;;5024724;28;20033;-66
2022/05/31 09:36:09;;;;;;;6.45;6.00;;;;;;;;;;5023168;28;20056;-65
2022/05/31 09:38:40;;;;;;;12.07;6.75;;;;;;;;;;5014676;28;20046;-65
2022/05/31 09:41:42;;;;;;;6.82;6.40;;;;;;;;;;5028079;28;20448;-66
2022/05/31 09:44:07;;;;;;;7.10;6.60;;;;;;;;;;5019714;28;20325;-66
2022/05/31 09:46:39;;;;;;;6.97;6.47;;;;;;;;;;5023325;28;20072;-66
2022/05/31 09:49:15;;;;;;;6.88;6.43;;;;;;;;;;5026204;28;20385;-67
2022/05/31 09:51:42;;;;;;;6.80;6.22;;;;;;;;;;5025293;28;20037;-67
2022/05/31 09:57:20;;;;;;;7.00;6.47;;;;;;;;;;5026707;28;20125;-66
2022/05/31 10:00:15;;;;;;;6.68;6.10;;;;;;;;;;5026075;28;20076;-66
2022/05/31 10:03:01;;;;;;;6.63;6.20;;;;;;;;;;5024810;28;20397;-66
2022/05/31 10:05:28;;;;;;;9.00;5.85;;;;;;;;;;5025164;28;20455;-66
2022/05/31 10:07:54;;;;;;;6.47;5.88;;;;;;;;;;5027640;28;20071;-65
2022/05/31 10:10:32;;;;;;;7.28;6.68;;;;;;;;;;5027321;28;20064;-65
2022/05/31 10:13:08;;;;;;;6.68;6.20;;;;;;;;;;5023221;28;20117;-65
2022/05/31 10:15:50;;;;;;;6.57;6.03;;;;;;;;;;5026528;28;20037;-66
2022/05/31 10:18:27;;;;;;;7.38;6.57;;;;;;;;;;5027380;28;20045;-66
2022/05/31 10:21:02;;;;;;;7.18;6.55;;;;;;;;;;5017046;28;20393;-65
2022/05/31 10:23:35;;;;;;;6.70;6.30;;;;;;;;;;5025730;28;20108;-66
2022/05/31 10:26:38;;;;;;;7.75;6.95;;;;;;;;;;4999566;28;20061;-66
2022/05/31 10:29:28;;;;;;;7.55;6.85;;;;;;;;;;5023718;28;20461;-66
2022/05/31 10:32:23;;;;;;;7.40;5.82;;;;;;;;;;5027685;28;20290;-66
2022/05/31 10:34:50;;;;;;;6.68;6.18;;;;;;;;;;5027436;28;20041;-66
2022/05/31 10:37:26;;;;;;;6.07;5.68;;;;;;;;;;5022438;28;20037;-66
2022/05/31 10:40:07;;;;;;;6.40;5.90;;;;;;;;;;5021961;28;20048;-66
2022/05/31 10:42:37;;;;;;;6.60;5.55;;;;;;;;;;5027326;28;20043;-66
2022/05/31 10:45:06;;;;;;;5.32;4.93;;;;;;;;;;5026916;28;20485;-66
2022/05/31 10:47:32;;;;;;;6.60;5.72;;;;;;;;;;5024789;28;20116;-66
2022/05/31 10:49:58;;;;;;;6.78;5.53;;;;;;;;;;5031065;28;20033;-66
2022/05/31 10:52:41;;;;;;;6.57;5.97;;;;;;;;;;5027305;28;20038;-66
2022/05/31 10:55:14;;;;;;;6.13;5.72;;;;;;;;;;5017633;28;20041;-66
2022/05/31 10:57:40;;;;;;;8.05;5.80;;;;;;;;;;5023548;28;20041;-66
2022/05/31 11:00:21;;;;;;;6.72;6.05;;;;;;;;;;5031043;28;20651;-67
2022/05/31 11:03:24;;;;;;;5.97;5.60;;;;;;;;;;5028891;28;20110;-66
2022/05/31 11:06:15;;;;;;;6.57;5.97;;;;;;;;;;5026251;28;20041;-66
2022/05/31 11:12:02;;;;;;;7.50;5.80;;;;;;;;;;5026683;28;20041;-66
2022/05/31 11:15:01;;;;;;;6.20;5.60;;;;;;;;;;5025915;28;20674;-66
2022/05/31 11:17:41;;;;;;;6.38;5.97;;;;;;;;;;5030832;28;20052;-67
2022/05/31 11:20:12;;;;;;;6.55;5.93;;;;;;;;;;5028699;28;20045;-65
2022/05/31 11:22:59;;;;;;;6.47;5.97;;;;;;;;;;5028917;28;20036;-66
2022/05/31 11:25:38;;;;;;;6.47;6.00;;;;;;;;;;5003478;28;20036;-66
2022/05/31 11:28:38;;;;;;;6.50;6.03;;;;;;;;;;5023678;28;20450;-65
2022/05/31 11:31:16;;;;;;;6.90;6.10;;;;;;;;;;5021926;28;20048;-65
2022/05/31 11:34:00;;;;;;;6.57;6.07;;;;;;;;;;5017580;28;20095;-66
2022/05/31 11:36:58;;;;;;;6.85;6.00;;;;;;;;;;5027748;28;20045;-66
2022/05/31 11:39:52;;;;;;;7.13;6.60;;;;;;;;;;5024078;28;20041;-67
2022/05/31 11:42:31;;;;;;;7.10;6.40;;;;;;;;;;5025995;28;20498;-67
2022/05/31 11:45:06;;;;;;;7.50;6.80;;;;;;;;;;5024310;28;20044;-67
2022/05/31 11:47:49;;;;;;;6.50;5.90;;;;;;;;;;5027424;28;20508;-67
2022/05/31 11:50:20;;;;;;;6.72;5.93;;;;;;;;;;5026773;28;20078;-68
2022/05/31 11:53:18;;;;;;;7.53;6.47;;;;;;;;;;5024418;28;20042;-67
2022/05/31 11:55:57;;;;;;;6.90;6.40;;;;;;;;;;5015904;28;20042;-67
2022/05/31 11:58:55;;;;;;;6.80;6.30;;;;;;;;;;5027508;28;20044;-67
2022/05/31 12:01:38;;;;;;;8.95;6.28;;;;;;;;;;5019928;28;20033;-67
2022/05/31 12:04:17;;;;;;;6.63;6.00;;;;;;;;;;5027054;28;20428;-68
2022/05/31 12:06:48;;;;;;;6.40;5.90;;;;;;;;;;5023888;28;20144;-68
2022/05/31 12:09:41;;;;;;;6.93;6.30;;;;;;;;;;5023640;28;20599;-67
2022/05/31 12:12:14;;;;;;;6.57;6.05;;;;;;;;;;5026822;28;20052;-67
2022/05/31 12:14:46;;;;;;;7.05;6.05;;;;;;;;;;5026131;28;20041;-67
2022/05/31 12:17:12;;;;;;;6.70;5.90;;;;;;;;;;5024379;28;20025;-67
2022/05/31 12:19:48;;;;;;;6.60;5.70;;;;;;;;;;5025711;28;20049;-67
2022/05/31 12:22:33;;;;;;;6.53;5.72;;;;;;;;;;5026654;28;20408;-68
2022/05/31 12:25:18;;;;;;;6.35;5.78;;;;;;;;;;5019320;28;20037;-68
2022/05/31 12:27:52;;;;;;;5.70;5.32;;;;;;;;;;5023223;28;20072;-68
2022/05/31 12:30:25;;;;;;;6.35;5.82;;;;;;;;;;5023968;28;20081;-68
2022/05/31 12:32:53;;;;;;;6.18;5.70;;;;;;;;;;5027427;28;20132;-68
2022/05/31 12:35:31;;;;;;;6.32;5.82;;;;;;;;;;5023710;28;20500;-67
2022/05/31 12:38:06;;;;;;;6.17;5.70;;;;;;;;;;5019375;28;20037;-67
2022/05/31 12:40:32;;;;;;;6.45;5.93;;;;;;;;;;5026871;28;20295;-67
2022/05/31 12:42:59;;;;;;;7.32;5.93;;;;;;;;;;5024276;28;20455;-67
2022/05/31 12:45:34;;;;;;;5.85;5.38;;;;;;;;;;5024364;28;20045;-67
2022/05/31 12:48:25;;;;;;;6.35;5.38;;;;;;;;;;5025366;28;20106;-66
2022/05/31 12:50:56;;;;;;;6.30;5.68;;;;;;;;;;5024957;28;20575;-67
2022/05/31 12:53:37;;;;;;;5.82;5.18;;;;;;;;;;5023439;28;20072;-67
2022/05/31 12:56:04;;;;;;;6.38;5.75;;;;;;;;;;5018503;28;20069;-68
2022/05/31 12:58:36;;;;;;;7.90;5.40;;;;;;;;;;5026829;28;20424;-68
2022/05/31 13:01:10;;;;;;;6.32;5.70;;;;;;;;;;5027551;28;20037;-67
2022/05/31 13:03:42;;;;;;;5.90;5.40;;;;;;;;;;5020267;28;20029;-68
2022/05/31 13:06:52;;;;;;;6.30;5.70;;;;;;;;;;5021192;28;20046;-67
2022/05/31 13:09:23;;;;;;;6.85;5.40;;;;;;;;;;5027201;28;20041;-67
2022/05/31 13:20:56;;;;;;;6.78;5.35;;;;;;;;;;5022531;28;20047;-67
2022/05/31 13:23:42;;;;;;;5.72;5.22;;;;;;;;;;5021779;28;20741;-67
2022/05/31 13:26:19;;;;;;;7.28;5.70;;;;;;;;;;5015492;28;20080;-67
2022/05/31 13:28:55;;;;;;;6.40;5.80;;;;;;;;;;5025958;28;20052;-67
2022/05/31 13:31:24;;;;;;;9.93;5.47;;;;;;;;;;5022755;28;20124;-67
2022/05/31 13:34:04;;;;;;;5.82;5.43;;;;;;;;;;5019217;28;20072;-67
2022/05/31 13:36:38;;;;;;;9.43;4.95;;;;;;;;;;5024062;28;20056;-68
2022/05/31 13:39:08;;;;;;;8.40;5.20;;;;;;;;;;5020156;28;20048;-67
2022/05/31 13:44:26;;;;;;;6.07;5.40;;;;;;;;;;5000212;28;20060;-66
2022/05/31 13:46:52;;;;;;;6.03;5.63;;;;;;;;;;5007194;28;20034;-66
2022/05/31 13:49:30;;;;;;;7.57;5.43;;;;;;;;;;5001681;28;20037;-66
2022/05/31 13:52:02;;;;;;;6.10;5.60;;;;;;;;;;5006352;28;20046;-65
2022/05/31 13:54:49;;;;;;;5.80;5.40;;;;;;;;;;5005316;28;20125;-66
2022/05/31 13:57:17;;;;;;;6.13;5.60;;;;;;;;;;5002587;28;20073;-63
2022/05/31 13:59:52;;;;;;;5.90;5.40;;;;;;;;;;5004841;28;20083;-65
2022/05/31 14:02:26;;;;;;;5.90;5.43;;;;;;;;;;5000521;28;20571;-65
2022/05/31 14:04:58;;;;;;;5.82;5.40;;;;;;;;;;5005986;28;20034;-66
2022/05/31 14:07:30;;;;;;;6.30;5.50;;;;;;;;;;5006771;28;20037;-65
2022/05/31 14:09:58;;;;;;;6.25;5.32;;;;;;;;;;5008030;28;20041;-66
2022/05/31 14:12:26;;;;;;;6.88;5.10;;;;;;;;;;5007924;28;20693;-66
2022/05/31 14:14:52;;;;;;;5.93;5.43;;;;;;;;;;5005142;28;20037;-67
2022/05/31 14:17:39;;;;;;;5.90;5.40;;;;;;;;;;5007937;28;20030;-65
2022/05/31 14:20:25;;;;;;;6.13;5.63;;;;;;;;;;5008022;28;20037;-65
2022/05/31 14:22:58;;;;;;;7.07;5.30;;;;;;;;;;5004587;28;20117;-65
2022/05/31 14:25:24;;;;;;;5.70;5.20;;;;;;;;;;5003359;28;20073;-65
2022/05/31 14:27:50;;;;;;;5.85;5.13;;;;;;;;;;5023255;28;20025;-64
2022/05/31 14:30:39;;;;;;;5.78;5.28;;;;;;;;;;5008279;28;20041;-63
2022/05/31 14:33:07;;;;;;;5.70;5.25;;;;;;;;;;5010027;28;20039;-63
2022/05/31 14:35:41;;;;;;;;;;;;;;;;;;5011820;28;20030;-64
2022/05/31 14:38:12;;;;;;;6.03;5.30;;;;;;;;;;5012234;28;20002;-64
2022/05/31 14:40:40;;;;;;;5.72;5.30;;;;;;;;;;5008179;28;20037;-64
2022/05/31 14:43:13;;;;;;;5.65;5.25;;;;;;;;;;5010395;28;20524;-63
2022/05/31 14:45:45;;;;;;;5.32;4.85;;;;;;;;;;5011269;28;20041;-64
2022/05/31 14:48:38;;;;;;;6.68;4.85;;;;;;;;;;5011993;28;20037;-63
2022/05/31 14:51:16;;;;;;;5.70;5.10;;;;;;;;;;5009681;28;20088;-63
2022/05/31 14:53:44;;;;;;;5.40;5.00;;;;;;;;;;5006071;28;20038;-64
2022/05/31 14:56:25;;;;;;;5.70;5.30;;;;;;;;;;5011310;28;20048;-64
2022/05/31 14:58:58;;;;;;;5.68;5.18;;;;;;;;;;5001993;28;20288;-63
2022/05/31 15:01:29;;;;;;;5.93;5.43;;;;;;;;;;5008020;28;20594;-63
2022/05/31 15:04:06;;;;;;;5.70;5.13;;;;;;;;;;5011241;28;20045;-63
2022/05/31 15:06:33;;;;;;;5.50;5.10;;;;;;;;;;5008598;28;20045;-63
2022/05/31 15:09:19;;;;;;;6.68;5.20;;;;;;;;;;5009488;28;20493;-63
2022/05/31 15:20:15;;;;;;;6.03;5.47;;;;;;;;;;5007344;28;20048;-64
2022/05/31 15:22:42;;;;;;;5.60;5.20;;;;;;;;;;5026106;28;20079;-66
2022/05/31 15:25:22;;;;;;;6.03;5.53;;;;;;;;;;5010542;28;20034;-65
2022/05/31 15:27:48;;;;;;;5.80;5.40;;;;;;;;;;5009340;28;20092;-63
2022/05/31 15:30:15;;;;;;;6.53;5.32;;;;;;;;;;5010430;28;20061;-64
2022/05/31 15:32:44;;;;;;;6.13;5.30;;;;;;;;;;5010457;28;20037;-64
2022/05/31 15:35:11;;;;;;;;;;;;;;;;;;5009632;28;20038;-63
2022/05/31 15:37:37;;;;;;;5.43;5.03;;;;;;;;;;5010028;28;19964;-64
2022/05/31 15:40:04;;;;;;;5.60;4.97;;;;;;;;;;5010689;28;20073;-63
2022/05/31 15:42:30;;;;;;;5.90;5.40;;;;;;;;;;5009543;28;20548;-63
2022/05/31 15:44:56;;;;;;;5.63;4.88;;;;;;;;;;5008406;28;20116;-66
2022/05/31 15:47:22;;;;;;;5.88;5.32;;;;;;;;;;5009720;28;20050;-66
2022/05/31 15:49:47;;;;;;;5.75;5.28;;;;;;;;;;5010662;28;20041;-66
2022/05/31 15:52:20;;;;;;;5.90;5.40;;;;;;;;;;5008807;28;20181;-66
2022/05/31 15:54:55;;;;;;;5.80;5.30;;;;;;;;;;5006771;28;20643;-65
2022/05/31 15:57:23;;;;;;;5.50;5.10;;;;;;;;;;5010176;28;20041;-64
2022/05/31 15:59:48;;;;;;;5.35;5.05;;;;;;;;;;5007614;28;20149;-64
2022/05/31 16:02:15;;;;;;;5.57;5.07;;;;;;;;;;5009020;28;20180;-64
2022/05/31 16:04:40;;;;;;;5.50;5.10;;;;;;;;;;5010199;28;20026;-65
2022/05/31 16:07:13;;;;;;;5.90;5.38;;;;;;;;;;5009126;28;20041;-65